createdAt,value
2022-11-13T00:00:11.112Z,100947.34
2022-11-13T00:01:13.011Z,100957.69
2022-11-13T00:02:15.513Z,100952.47
2022-11-13T00:03:17.304Z,100956.81
2022-11-13T00:04:18.953Z,100953.41
2022-11-13T00:05:20.925Z,100963.81
2022-11-13T00:06:22.820Z,100945.63
2022-11-13T00:07:24.489Z,100951.75
2022-11-13T00:08:27.694Z,100962.97
2022-11-13T00:09:31.216Z,100941.38
2022-11-13T00:10:32.821Z,100931.00
2022-11-13T00:11:34.750Z,100917.25
2022-11-13T00:12:37.955Z,100934.44
2022-11-13T00:13:39.904Z,100939.63
2022-11-13T00:14:42.857Z,100954.28
2022-11-13T00:15:44.525Z,100957.75
2022-11-13T00:16:46.366Z,100958.59
2022-11-13T00:17:48.113Z,100950.81
2022-11-13T00:18:50.014Z,100955.13
2022-11-13T00:19:53.976Z,100937.84
2022-11-13T00:21:04.403Z,100942.16
2022-11-13T00:22:06.780Z,100949.94
2022-11-13T00:23:11.072Z,100936.09
2022-11-13T00:24:13.527Z,100958.50
2022-11-13T00:25:15.959Z,100930.84
2022-11-13T00:26:23.999Z,100946.34
2022-11-13T00:27:25.764Z,100944.59
2022-11-13T00:28:27.551Z,100929.06
2022-11-13T00:29:29.749Z,100948.91
2022-11-13T00:30:32.070Z,100943.69
2022-11-13T00:31:35.100Z,100948.88
2022-11-13T00:32:42.590Z,100915.25
2022-11-13T00:34:09.096Z,100924.72
2022-11-13T00:35:08.620Z,100934.13
2022-11-13T00:36:30.434Z,100934.13
2022-11-13T00:37:32.325Z,100940.16
2022-11-13T00:38:35.547Z,100931.56
2022-11-13T00:39:37.206Z,100930.66
2022-11-13T00:40:40.959Z,100928.91
2022-11-13T00:41:43.767Z,100916.94
2022-11-13T00:42:46.468Z,100915.16
2022-11-13T00:43:50.276Z,100916.94
2022-11-13T00:44:52.011Z,100934.19
2022-11-13T00:45:54.218Z,100914.28
2022-11-13T00:46:56.881Z,100929.97
2022-11-13T00:47:58.447Z,100914.47
2022-11-13T00:49:01.937Z,100918.75
2022-11-13T00:50:05.764Z,100895.47
2022-11-13T00:51:07.472Z,100921.34
2022-11-13T00:52:09.469Z,100917.03
2022-11-13T00:53:16.831Z,100906.75
2022-11-13T00:54:22.309Z,100905.78
2022-11-13T00:55:24.928Z,100896.28
2022-11-13T00:56:27.294Z,100900.56
2022-11-13T00:57:29.021Z,100895.41
2022-11-13T00:58:30.970Z,100906.56
2022-11-13T00:59:32.651Z,100902.22
2022-11-13T01:00:34.653Z,100909.97
2022-11-13T01:01:36.626Z,100903.88
2022-11-13T01:02:38.885Z,100886.63
2022-11-13T01:03:40.807Z,100895.28
2022-11-13T01:04:43.081Z,100909.94
2022-11-13T01:05:46.004Z,100901.22
2022-11-13T01:06:47.664Z,100913.34
2022-11-13T01:07:50.529Z,100870.22
2022-11-13T01:08:56.421Z,100895.25
2022-11-13T01:10:00.233Z,100897.00
2022-11-13T01:11:08.781Z,100903.94
2022-11-13T01:12:10.388Z,100897.00
2022-11-13T01:13:12.605Z,100897.00
2022-11-13T01:14:14.362Z,100882.31
2022-11-13T01:15:17.081Z,100901.31
2022-11-13T01:16:23.509Z,100888.38
2022-11-13T01:17:25.297Z,100901.34
2022-11-13T01:18:27.345Z,100900.47
2022-11-13T01:19:29.790Z,100897.03
2022-11-13T01:20:33.360Z,100895.28
2022-11-13T01:21:35.221Z,100893.56
2022-11-13T01:22:37.927Z,100892.69
2022-11-13T01:23:40.665Z,100893.50
2022-11-13T01:24:43.035Z,100869.34
2022-11-13T01:25:46.870Z,100888.34
2022-11-13T01:26:49.201Z,100894.38
2022-11-13T01:27:51.271Z,100875.34
2022-11-13T01:28:54.124Z,100884.78
2022-11-13T01:29:56.030Z,100872.72
2022-11-13T01:30:57.730Z,100887.41
2022-11-13T01:31:59.710Z,100893.44
2022-11-13T01:33:01.392Z,100887.47
2022-11-13T01:34:03.308Z,100898.75
2022-11-13T01:35:05.351Z,100884.97
2022-11-13T01:36:11.267Z,100865.09
2022-11-13T01:37:13.056Z,100883.09
2022-11-13T01:38:16.454Z,100887.44
2022-11-13T01:39:17.972Z,100858.13
2022-11-13T01:40:19.738Z,100886.53
2022-11-13T01:41:28.582Z,100861.56
2022-11-13T01:42:32.584Z,100890.91
2022-11-13T01:43:37.606Z,100850.41
2022-11-13T01:44:58.272Z,100872.66
2022-11-13T01:46:19.398Z,100882.19
2022-11-13T01:47:23.568Z,100885.69
2022-11-13T01:48:37.653Z,100870.91
2022-11-13T01:49:43.206Z,100864.91
2022-11-13T01:50:45.855Z,100870.06
2022-11-13T01:51:58.782Z,100860.59
2022-11-13T01:53:00.739Z,100849.50
2022-11-13T01:54:12.839Z,100866.78
2022-11-13T01:55:19.590Z,100865.94
2022-11-13T01:56:22.703Z,100866.03
2022-11-13T01:57:26.404Z,100843.69
2022-11-13T01:58:33.068Z,100872.06
2022-11-13T01:59:40.420Z,100866.09
2022-11-13T02:00:42.254Z,100842.81
2022-11-13T02:01:45.550Z,100862.63
2022-11-13T02:02:47.487Z,100859.19
2022-11-13T02:03:49.793Z,100863.50
2022-11-13T02:04:52.594Z,100862.63
2022-11-13T02:05:55.167Z,100844.47
2022-11-13T02:07:01.420Z,100848.78
2022-11-13T02:08:03.723Z,100834.13
2022-11-13T02:09:07.901Z,100854.78
2022-11-13T02:10:10.204Z,100865.19
2022-11-13T02:11:13.056Z,100866.84
2022-11-13T02:12:25.008Z,100860.81
2022-11-13T02:13:26.669Z,100851.31
2022-11-13T02:14:31.041Z,100859.84
2022-11-13T02:15:35.200Z,100861.66
2022-11-13T02:16:40.030Z,100862.59
2022-11-13T02:17:52.114Z,100861.75
2022-11-13T02:18:54.160Z,100841.03
2022-11-13T02:20:01.031Z,100855.66
2022-11-13T02:21:20.739Z,100857.38
2022-11-13T02:22:51.894Z,100861.75
2022-11-13T02:24:02.246Z,100858.31
2022-11-13T02:25:05.768Z,100839.38
2022-11-13T02:26:09.981Z,100854.00
2022-11-13T02:27:27.449Z,100854.03
2022-11-13T02:28:29.424Z,100851.38
2022-11-13T02:29:32.195Z,100835.03
2022-11-13T02:30:36.148Z,100839.38
2022-11-13T02:31:37.804Z,100841.00
2022-11-13T02:32:46.598Z,100845.28
2022-11-13T02:33:48.599Z,100846.09
2022-11-13T02:34:50.151Z,100851.31
2022-11-13T02:35:52.577Z,100838.34
2022-11-13T02:36:54.405Z,100843.47
2022-11-13T02:37:58.660Z,100840.03
2022-11-13T02:39:04.356Z,100845.28
2022-11-13T02:40:07.109Z,100839.22
2022-11-13T02:41:08.791Z,100844.44
2022-11-13T02:42:10.750Z,100838.44
2022-11-13T02:43:12.675Z,100834.97
2022-11-13T02:44:14.488Z,100803.94
2022-11-13T02:45:17.194Z,100834.91
2022-11-13T02:46:18.737Z,100811.63
2022-11-13T02:47:20.932Z,100793.56
2022-11-13T02:48:23.710Z,100828.00
2022-11-13T02:49:25.683Z,100829.78
2022-11-13T02:50:29.089Z,100820.31
2022-11-13T02:51:31.910Z,100834.13
2022-11-13T02:52:33.578Z,100831.56
2022-11-13T02:53:36.671Z,100826.44
2022-11-13T02:54:39.554Z,100828.19
2022-11-13T02:55:42.019Z,100810.06
2022-11-13T02:56:48.928Z,100796.31
2022-11-13T02:57:50.749Z,100810.06
2022-11-13T02:58:52.734Z,100821.31
2022-11-13T02:59:55.413Z,100828.19
2022-11-13T03:00:57.291Z,100822.19
2022-11-13T03:01:59.307Z,100822.19
2022-11-13T03:03:00.974Z,100822.19
2022-11-13T03:04:03.636Z,100818.72
2022-11-13T03:05:14.084Z,100819.63
2022-11-13T03:06:16.024Z,100815.28
2022-11-13T03:07:17.578Z,100811.81
2022-11-13T03:08:19.900Z,100797.19
2022-11-13T03:09:23.308Z,100821.34
2022-11-13T03:10:24.795Z,100811.00
2022-11-13T03:11:26.633Z,100782.53
2022-11-13T03:12:29.434Z,100812.69
2022-11-13T03:13:30.948Z,100801.50
2022-11-13T03:14:32.599Z,100806.66
2022-11-13T03:15:34.866Z,100804.06
2022-11-13T03:16:37.692Z,100798.84
2022-11-13T03:17:39.550Z,100791.06
2022-11-13T03:18:41.481Z,100779.09
2022-11-13T03:19:43.078Z,100799.72
2022-11-13T03:20:44.938Z,100793.69
2022-11-13T03:21:46.540Z,100790.22
2022-11-13T03:22:48.468Z,100788.47
2022-11-13T03:23:51.365Z,100803.13
2022-11-13T03:24:54.536Z,100800.53
2022-11-13T03:25:56.335Z,100759.13
2022-11-13T03:26:58.593Z,100799.63
2022-11-13T03:28:00.930Z,100782.34
2022-11-13T03:29:03.764Z,100800.44
2022-11-13T03:30:08.610Z,100793.59
2022-11-13T03:31:10.407Z,100770.28
2022-11-13T03:32:13.117Z,100763.38
2022-11-13T03:33:16.719Z,100794.53
2022-11-13T03:34:19.615Z,100779.81
2022-11-13T03:35:25.851Z,100799.59
2022-11-13T03:36:29.216Z,100787.44
2022-11-13T03:37:32.242Z,100790.88
2022-11-13T03:38:35.038Z,100785.72
2022-11-13T03:39:37.568Z,100792.72
2022-11-13T03:40:39.162Z,100786.69
2022-11-13T03:41:41.035Z,100762.53
2022-11-13T03:42:42.818Z,100789.16
2022-11-13T03:43:44.811Z,100782.25
2022-11-13T03:44:46.405Z,100785.66
2022-11-13T03:45:48.426Z,100772.75
2022-11-13T03:46:50.080Z,100776.94
2022-11-13T03:47:51.873Z,100767.47
2022-11-13T03:48:57.105Z,100776.94
2022-11-13T03:49:58.850Z,100775.19
2022-11-13T03:51:01.211Z,100782.97
2022-11-13T03:52:03.533Z,100782.97
2022-11-13T03:53:06.610Z,100786.47
2022-11-13T03:54:08.332Z,100779.56
2022-11-13T03:55:11.690Z,100772.59
2022-11-13T03:56:15.195Z,100759.66
2022-11-13T03:57:16.913Z,100775.13
2022-11-13T03:58:18.984Z,100778.63
2022-11-13T03:59:20.820Z,100773.34
2022-11-13T04:00:22.457Z,100761.28
2022-11-13T04:01:24.575Z,100755.28
2022-11-13T04:02:26.343Z,100772.50
2022-11-13T04:03:28.054Z,100769.97
2022-11-13T04:04:29.830Z,100773.34
2022-11-13T04:05:32.804Z,100771.63
2022-11-13T04:06:35.980Z,100774.22
2022-11-13T04:07:37.756Z,100775.94
2022-11-13T04:08:39.599Z,100769.94
2022-11-13T04:09:42.015Z,100756.16
2022-11-13T04:10:45.917Z,100776.81
2022-11-13T04:11:47.722Z,100763.91
2022-11-13T04:12:50.088Z,100770.00
2022-11-13T04:13:51.655Z,100748.50
2022-11-13T04:14:53.495Z,100773.44
2022-11-13T04:15:57.000Z,100771.72
2022-11-13T04:16:59.133Z,100760.50
2022-11-13T04:18:01.066Z,100762.19
2022-11-13T04:19:02.822Z,100732.06
2022-11-13T04:20:05.200Z,100764.78
2022-11-13T04:21:09.252Z,100772.56
2022-11-13T04:22:10.974Z,100758.84
2022-11-13T04:23:15.905Z,100773.53
2022-11-13T04:24:17.872Z,100758.13
2022-11-13T04:25:19.712Z,100759.84
2022-11-13T04:26:21.400Z,100758.13
2022-11-13T04:27:22.980Z,100740.06
2022-11-13T04:28:24.958Z,100751.22
2022-11-13T04:29:26.672Z,100745.22
2022-11-13T04:30:29.697Z,100739.19
2022-11-13T04:31:31.495Z,100730.50
2022-11-13T04:32:34.634Z,100752.88
2022-11-13T04:33:36.252Z,100757.22
2022-11-13T04:34:37.886Z,100752.09
2022-11-13T04:35:41.779Z,100746.94
2022-11-13T04:36:43.455Z,100756.47
2022-11-13T04:37:45.087Z,100762.50
2022-11-13T04:38:47.868Z,100759.97
2022-11-13T04:39:49.943Z,100755.66
2022-11-13T04:41:13.024Z,100751.31
2022-11-13T04:42:33.206Z,100703.13
2022-11-13T04:43:34.866Z,100751.28
2022-11-13T04:44:36.911Z,100748.66
2022-11-13T04:45:38.523Z,100752.09
2022-11-13T04:46:40.504Z,100762.44
2022-11-13T04:47:42.219Z,100752.88
2022-11-13T04:48:43.731Z,100741.66
2022-11-13T04:49:48.021Z,100744.16
2022-11-13T04:50:50.131Z,100746.75
2022-11-13T04:51:52.724Z,100743.38
2022-11-13T04:52:54.379Z,100751.09
2022-11-13T04:53:56.083Z,100744.16
2022-11-13T04:54:58.453Z,100738.97
2022-11-13T04:56:00.479Z,100726.97
2022-11-13T04:57:02.121Z,100717.50
2022-11-13T04:58:03.696Z,100719.25
2022-11-13T04:59:05.561Z,100736.63
2022-11-13T05:00:08.232Z,100722.75
2022-11-13T05:01:10.386Z,100727.06
2022-11-13T05:02:12.120Z,100722.00
2022-11-13T05:03:13.743Z,100730.63
2022-11-13T05:04:16.428Z,100721.94
2022-11-13T05:05:18.456Z,100719.38
2022-11-13T05:06:23.530Z,100730.63
2022-11-13T05:07:29.592Z,100715.09
2022-11-13T05:08:32.681Z,100677.22
2022-11-13T05:09:36.164Z,100703.88
2022-11-13T05:10:38.106Z,100719.44
2022-11-13T05:11:41.484Z,100697.81
2022-11-13T05:12:43.758Z,100705.63
2022-11-13T05:13:46.379Z,100728.03
2022-11-13T05:14:48.788Z,100714.19
2022-11-13T05:15:51.761Z,100705.53
2022-11-13T05:16:53.717Z,100721.03
2022-11-13T05:17:55.885Z,100729.72
2022-11-13T05:18:58.324Z,100707.34
2022-11-13T05:19:59.863Z,100702.22
2022-11-13T05:21:02.051Z,100701.28
2022-11-13T05:22:04.092Z,100709.09
2022-11-13T05:23:07.495Z,100677.22
2022-11-13T05:24:13.456Z,100702.19
2022-11-13T05:25:18.136Z,100705.63
2022-11-13T05:26:19.864Z,100696.22
2022-11-13T05:27:21.447Z,100692.63
2022-11-13T05:28:23.595Z,100692.56
2022-11-13T05:29:27.877Z,100696.00
2022-11-13T05:30:29.640Z,100672.75
2022-11-13T05:31:32.224Z,100689.09
2022-11-13T05:32:34.822Z,100695.97
2022-11-13T05:33:40.390Z,100694.22
2022-11-13T05:34:44.483Z,100695.06
2022-11-13T05:35:47.503Z,100702.84
2022-11-13T05:36:49.810Z,100696.75
2022-11-13T05:37:51.997Z,100689.00
2022-11-13T05:38:53.888Z,100687.34
2022-11-13T05:39:56.508Z,100689.91
2022-11-13T05:41:15.545Z,100688.25
2022-11-13T05:42:17.247Z,100690.81
2022-11-13T05:43:21.688Z,100658.16
2022-11-13T05:44:23.622Z,100706.34
2022-11-13T05:45:25.701Z,100681.34
2022-11-13T05:46:29.563Z,100690.03
2022-11-13T05:47:33.242Z,100671.97
2022-11-13T05:48:36.126Z,100689.13
2022-11-13T05:49:41.436Z,100693.50
2022-11-13T05:50:44.223Z,100690.91
2022-11-13T05:51:45.901Z,100727.22
2022-11-13T05:52:49.798Z,100690.00
2022-11-13T05:53:52.770Z,100670.25
2022-11-13T05:54:55.259Z,100658.16
2022-11-13T05:56:01.595Z,100678.84
2022-11-13T05:57:04.912Z,100671.09
2022-11-13T05:58:06.970Z,100628.06
2022-11-13T05:59:09.597Z,100676.25
2022-11-13T06:00:14.175Z,100679.69
2022-11-13T06:01:20.839Z,100686.56
2022-11-13T06:02:23.104Z,100657.28
2022-11-13T06:03:26.019Z,100676.22
2022-11-13T06:04:28.956Z,100650.38
2022-11-13T06:05:30.679Z,100665.00
2022-11-13T06:06:33.293Z,100678.81
2022-11-13T06:07:35.223Z,100676.25
2022-11-13T06:08:37.904Z,100679.69
2022-11-13T06:09:40.976Z,100675.38
2022-11-13T06:10:43.100Z,100671.13
2022-11-13T06:11:45.858Z,100660.75
2022-11-13T06:12:48.321Z,100673.72
2022-11-13T06:13:51.748Z,100672.00
2022-11-13T06:14:54.622Z,100647.94
2022-11-13T06:16:05.849Z,100665.16
2022-11-13T06:17:08.847Z,100671.34
2022-11-13T06:18:14.698Z,100641.16
2022-11-13T06:19:16.361Z,100636.81
2022-11-13T06:20:18.129Z,100634.25
2022-11-13T06:21:22.450Z,100660.06
2022-11-13T06:22:25.797Z,100664.38
2022-11-13T06:23:29.394Z,100615.34
2022-11-13T06:24:31.306Z,100664.38
2022-11-13T06:25:33.954Z,100648.94
2022-11-13T06:26:37.657Z,100668.69
2022-11-13T06:27:39.562Z,100636.84
2022-11-13T06:28:42.227Z,100647.16
2022-11-13T06:29:47.021Z,100654.88
2022-11-13T06:30:48.921Z,100660.03
2022-11-13T06:31:51.049Z,100647.94
2022-11-13T06:32:56.610Z,100654.84
2022-11-13T06:33:59.674Z,100647.94
2022-11-13T06:35:01.715Z,100641.94
2022-11-13T06:36:09.299Z,100654.88
2022-11-13T06:37:10.918Z,100646.19
2022-11-13T06:38:12.926Z,100651.44
2022-11-13T06:39:14.779Z,100644.47
2022-11-13T06:40:16.561Z,100644.44
2022-11-13T06:41:21.714Z,100634.91
2022-11-13T06:42:23.630Z,100642.66
2022-11-13T06:43:25.528Z,100624.56
2022-11-13T06:44:28.139Z,100642.69
2022-11-13T06:45:33.142Z,100640.09
2022-11-13T06:46:35.292Z,100623.75
2022-11-13T06:47:38.113Z,100642.69
2022-11-13T06:48:40.184Z,100641.78
2022-11-13T06:49:42.088Z,100633.16
2022-11-13T06:50:48.312Z,100605.59
2022-11-13T06:51:50.624Z,100634.84
2022-11-13T06:52:52.692Z,100633.16
2022-11-13T06:53:54.544Z,100642.53
2022-11-13T06:54:56.416Z,100627.94
2022-11-13T06:55:59.150Z,100639.91
2022-11-13T06:57:01.029Z,100637.31
2022-11-13T06:58:03.010Z,100634.75
2022-11-13T06:59:08.346Z,100640.03
2022-11-13T07:00:11.353Z,100624.59
2022-11-13T07:01:16.038Z,100634.91
2022-11-13T07:02:17.709Z,100618.59
2022-11-13T07:03:26.811Z,100633.13
2022-11-13T07:04:29.565Z,100633.13
2022-11-13T07:05:41.940Z,100611.66
2022-11-13T07:06:46.521Z,100629.81
2022-11-13T07:07:48.198Z,100640.13
2022-11-13T07:08:50.680Z,100622.03
2022-11-13T07:09:54.053Z,100631.44
2022-11-13T07:10:57.072Z,100640.94
2022-11-13T07:11:59.472Z,100636.56
2022-11-13T07:13:01.320Z,100618.47
2022-11-13T07:14:05.719Z,100631.38
2022-11-13T07:15:07.571Z,100631.41
2022-11-13T07:16:19.094Z,100638.34
2022-11-13T07:17:23.299Z,100628.81
2022-11-13T07:18:29.329Z,100617.56
2022-11-13T07:19:33.256Z,100628.75
2022-11-13T07:20:35.783Z,100626.13
2022-11-13T07:21:37.692Z,100626.94
2022-11-13T07:22:39.856Z,100619.22
2022-11-13T07:23:44.893Z,100631.25
2022-11-13T07:24:48.384Z,100607.34
2022-11-13T07:25:55.643Z,100623.69
2022-11-13T07:26:57.817Z,100627.19
2022-11-13T07:27:59.819Z,100622.06
2022-11-13T07:29:02.992Z,100613.47
2022-11-13T07:30:06.319Z,100621.28
2022-11-13T07:31:12.599Z,100616.06
2022-11-13T07:32:14.718Z,100629.00
2022-11-13T07:33:17.228Z,100626.41
2022-11-13T07:34:22.749Z,100626.38
2022-11-13T07:35:24.507Z,100602.28
2022-11-13T07:36:26.234Z,100633.34
2022-11-13T07:37:28.724Z,100618.63
2022-11-13T07:38:32.531Z,100615.16
2022-11-13T07:39:36.097Z,100609.09
2022-11-13T07:40:38.582Z,100611.63
2022-11-13T07:41:44.931Z,100616.81
2022-11-13T07:42:47.479Z,100601.28
2022-11-13T07:43:51.764Z,100619.31
2022-11-13T07:44:55.709Z,100601.22
2022-11-13T07:46:00.758Z,100608.94
2022-11-13T07:47:02.766Z,100601.25
2022-11-13T07:48:07.047Z,100602.09
2022-11-13T07:49:09.917Z,100605.53
2022-11-13T07:50:16.448Z,100603.88
2022-11-13T07:51:21.529Z,100603.03
2022-11-13T07:52:23.411Z,100566.97
2022-11-13T07:53:26.600Z,100560.09
2022-11-13T07:54:28.526Z,100606.63
2022-11-13T07:55:31.165Z,100584.25
2022-11-13T07:56:34.282Z,100604.84
2022-11-13T07:57:36.221Z,100597.03
2022-11-13T07:58:39.058Z,100601.34
2022-11-13T07:59:40.837Z,100597.81
2022-11-13T08:00:42.917Z,100602.09
2022-11-13T08:01:50.719Z,100599.44
2022-11-13T08:02:52.751Z,100593.44
2022-11-13T08:03:56.089Z,100599.47
2022-11-13T08:04:58.566Z,100597.75
2022-11-13T08:06:06.373Z,100595.16
2022-11-13T08:07:10.831Z,100586.56
2022-11-13T08:08:14.269Z,100591.66
2022-11-13T08:09:17.058Z,100560.66
2022-11-13T08:10:21.665Z,100577.84
2022-11-13T08:11:25.131Z,100588.09
2022-11-13T08:12:27.926Z,100581.22
2022-11-13T08:13:34.343Z,100594.88
2022-11-13T08:14:36.639Z,100593.94
2022-11-13T08:15:38.671Z,100591.34
2022-11-13T08:16:40.772Z,100592.16
2022-11-13T08:17:42.652Z,100589.53
2022-11-13T08:18:44.452Z,100592.97
2022-11-13T08:19:46.106Z,100587.75
2022-11-13T08:20:48.763Z,100597.19
2022-11-13T08:21:50.796Z,100579.09
2022-11-13T08:22:53.210Z,100597.19
2022-11-13T08:23:56.668Z,100593.81
2022-11-13T08:24:58.649Z,100583.44
2022-11-13T08:26:06.570Z,100579.06
2022-11-13T08:27:11.023Z,100582.47
2022-11-13T08:28:14.537Z,100583.28
2022-11-13T08:29:17.821Z,100587.53
2022-11-13T08:30:20.619Z,100573.75
2022-11-13T08:31:22.242Z,100578.03
2022-11-13T08:32:25.004Z,100586.59
2022-11-13T08:33:29.130Z,100593.50
2022-11-13T08:34:31.347Z,100588.25
2022-11-13T08:35:33.864Z,100589.13
2022-11-13T08:36:38.390Z,100585.66
2022-11-13T08:37:40.375Z,100581.44
2022-11-13T08:38:43.051Z,100581.41
2022-11-13T08:39:45.005Z,100587.38
2022-11-13T08:40:46.647Z,100588.22
2022-11-13T08:41:50.024Z,100581.25
2022-11-13T08:42:52.629Z,100581.19
2022-11-13T08:43:55.672Z,100582.91
2022-11-13T08:44:59.378Z,100574.25
2022-11-13T08:46:02.079Z,100543.34
2022-11-13T08:47:04.061Z,100575.16
2022-11-13T08:48:06.697Z,100576.84
2022-11-13T08:49:11.530Z,100569.09
2022-11-13T08:50:13.654Z,100570.78
2022-11-13T08:51:15.641Z,100574.16
2022-11-13T08:52:17.342Z,100562.97
2022-11-13T08:53:20.735Z,100556.03
2022-11-13T08:54:23.881Z,100571.44
2022-11-13T08:55:26.046Z,100573.13
2022-11-13T08:56:30.231Z,100558.47
2022-11-13T08:57:33.320Z,100568.69
2022-11-13T08:58:35.634Z,100560.88
2022-11-13T08:59:37.236Z,100542.00
2022-11-13T09:00:38.801Z,100547.94
2022-11-13T09:01:40.614Z,100565.94
2022-11-13T09:02:43.583Z,100558.97
2022-11-13T09:03:46.562Z,100523.78
2022-11-13T09:04:49.585Z,100549.47
2022-11-13T09:05:51.231Z,100557.91
2022-11-13T09:06:53.110Z,100548.50
2022-11-13T09:07:59.633Z,100557.78
2022-11-13T09:09:01.907Z,100555.97
2022-11-13T09:10:04.801Z,100550.63
2022-11-13T09:11:06.957Z,100556.72
2022-11-13T09:12:08.552Z,100546.22
2022-11-13T09:13:12.578Z,100529.78
2022-11-13T09:14:14.460Z,100545.16
2022-11-13T09:15:20.306Z,100538.31
2022-11-13T09:16:26.457Z,100542.59
2022-11-13T09:17:28.431Z,100535.00
2022-11-13T09:18:30.661Z,100539.28
2022-11-13T09:19:32.799Z,100534.16
2022-11-13T09:20:38.458Z,100521.88
2022-11-13T09:21:40.670Z,100540.22
2022-11-13T09:22:42.701Z,100544.41
2022-11-13T09:23:47.616Z,100516.03
2022-11-13T09:24:50.089Z,100534.88
2022-11-13T09:25:53.091Z,100539.47
2022-11-13T09:26:54.865Z,100543.03
2022-11-13T09:28:01.853Z,100535.28
2022-11-13T09:29:04.199Z,100538.63
2022-11-13T09:30:07.123Z,100529.06
2022-11-13T09:31:09.522Z,100535.47
2022-11-13T09:32:11.272Z,100545.50
2022-11-13T09:33:17.272Z,100522.84
2022-11-13T09:34:18.973Z,100543.53
2022-11-13T09:35:34.749Z,100536.47
2022-11-13T09:36:37.292Z,100559.22
2022-11-13T09:37:38.931Z,100552.38
2022-11-13T09:38:41.570Z,100541.13
2022-11-13T09:39:43.731Z,100537.69
2022-11-13T09:40:55.053Z,100543.53
2022-11-13T09:42:13.857Z,100545.97
2022-11-13T09:43:29.911Z,100546.78
2022-11-13T09:44:39.622Z,100541.44
2022-11-13T09:45:43.302Z,100540.34
2022-11-13T09:46:54.791Z,100523.75
2022-11-13T09:48:07.201Z,100516.84
2022-11-13T09:49:09.092Z,100533.75
2022-11-13T09:50:22.441Z,100531.63
2022-11-13T09:51:33.734Z,100524.00
2022-11-13T09:52:41.972Z,100500.66
2022-11-13T09:53:46.499Z,100521.06
2022-11-13T09:54:51.948Z,100527.03
2022-11-13T09:56:16.438Z,100518.28
2022-11-13T09:57:46.887Z,100518.03
2022-11-13T09:58:53.641Z,100506.06
2022-11-13T10:00:04.893Z,100515.25
2022-11-13T10:01:22.070Z,100457.53
2022-11-13T10:02:46.584Z,100524.94
2022-11-13T10:04:02.396Z,100516.81
2022-11-13T10:05:32.104Z,100518.53
2022-11-13T10:06:41.161Z,100513.22
2022-11-13T10:08:01.420Z,100519.78
2022-11-13T10:09:26.327Z,100518.09
2022-11-13T10:11:02.403Z,100495.53
2022-11-13T10:12:10.235Z,100520.53
2022-11-13T10:13:28.290Z,100513.31
2022-11-13T10:14:34.362Z,100481.34
2022-11-13T10:15:38.681Z,100506.19
2022-11-13T10:16:49.645Z,100470.50
2022-11-13T10:18:02.774Z,100515.50
2022-11-13T10:19:19.666Z,100506.53
2022-11-13T10:20:33.033Z,100506.84
2022-11-13T10:21:44.337Z,100502.91
2022-11-13T10:22:55.525Z,100509.75
2022-11-13T10:23:58.370Z,100515.50
2022-11-13T10:25:17.163Z,100499.63
2022-11-13T10:26:23.202Z,100486.59
2022-11-13T10:27:26.168Z,100500.41
2022-11-13T10:29:54.537Z,100495.69
2022-11-13T10:30:56.579Z,100489.84
2022-11-13T10:31:59.397Z,100466.84
2022-11-13T10:33:12.456Z,100481.28
2022-11-13T10:34:15.591Z,100482.00
2022-11-13T10:35:23.234Z,100475.31
2022-11-13T10:36:44.464Z,100476.91
2022-11-13T10:38:22.312Z,100472.81
2022-11-13T10:39:24.465Z,100446.28
2022-11-13T10:40:28.367Z,100469.03
2022-11-13T10:41:30.721Z,100427.34
2022-11-13T10:42:41.594Z,100469.47
2022-11-13T10:44:21.364Z,100456.91
2022-11-13T10:45:28.187Z,100464.25
2022-11-13T10:46:33.036Z,100437.34
2022-11-13T10:48:03.312Z,100465.38
2022-11-13T10:49:33.997Z,100451.38
2022-11-13T10:50:36.287Z,100440.28
2022-11-13T10:51:39.865Z,100438.56
2022-11-13T10:52:48.466Z,100445.56
2022-11-13T10:53:53.713Z,100442.41
2022-11-13T10:55:18.571Z,100428.09
2022-11-13T10:56:25.467Z,100430.31
2022-11-13T10:57:35.037Z,100430.66
2022-11-13T10:58:37.062Z,100431.59
2022-11-13T10:59:42.383Z,100441.16
2022-11-13T11:00:49.167Z,100443.66
2022-11-13T11:01:51.207Z,100395.00
2022-11-13T11:02:52.916Z,100428.66
2022-11-13T11:03:55.908Z,100420.09
2022-11-13T11:05:21.599Z,100415.28
2022-11-13T11:07:12.686Z,100423.06
2022-11-13T11:07:58.449Z,100424.25
2022-11-13T11:09:13.321Z,100433.47
2022-11-13T11:10:33.511Z,100416.44
2022-11-13T11:11:54.241Z,100421.47
2022-11-13T11:13:01.451Z,100411.88
2022-11-13T11:14:22.927Z,100427.19
2022-11-13T11:15:36.896Z,100406.09
2022-11-13T11:16:40.781Z,100417.50
2022-11-13T11:17:58.461Z,100413.97
2022-11-13T11:19:04.775Z,100413.22
2022-11-13T11:20:22.321Z,100405.47
2022-11-13T11:21:32.706Z,100383.00
2022-11-13T11:22:38.169Z,100405.41
2022-11-13T11:23:49.584Z,100395.56
2022-11-13T11:25:00.858Z,100417.41
2022-11-13T11:26:10.000Z,100406.94
2022-11-13T11:27:19.168Z,100396.97
2022-11-13T11:28:36.273Z,100402.75
2022-11-13T11:29:43.936Z,100390.06
2022-11-13T11:31:05.813Z,100393.06
2022-11-13T11:32:17.785Z,100392.19
2022-11-13T11:33:54.858Z,100385.34
2022-11-13T11:35:02.562Z,100388.50
2022-11-13T11:36:25.651Z,100384.91
2022-11-13T11:37:44.367Z,100383.59
2022-11-13T11:39:01.624Z,100374.16
2022-11-13T11:40:08.175Z,100374.31
2022-11-13T11:41:16.651Z,100363.13
2022-11-13T11:42:29.044Z,100357.72
2022-11-13T11:43:42.897Z,100362.47
2022-11-13T11:44:59.794Z,100362.59
2022-11-13T11:46:02.914Z,100346.94
2022-11-13T11:47:13.768Z,100351.00
2022-11-13T11:48:18.735Z,100353.25
2022-11-13T11:49:22.838Z,100353.06
2022-11-13T11:50:55.638Z,100348.06
2022-11-13T11:52:18.242Z,100322.44
2022-11-13T11:53:41.843Z,100329.56
2022-11-13T11:55:08.160Z,100337.09
2022-11-13T11:56:20.520Z,100330.09
2022-11-13T11:57:41.073Z,100335.66
2022-11-13T11:59:04.616Z,100329.78
2022-11-13T12:00:14.083Z,100314.78
2022-11-13T12:01:52.919Z,100320.59
2022-11-13T12:03:20.430Z,100290.06
2022-11-13T12:04:56.558Z,100310.09
2022-11-13T12:06:01.199Z,100304.22
2022-11-13T12:07:24.529Z,100304.25
2022-11-13T12:08:44.990Z,100303.13
2022-11-13T12:10:15.237Z,100298.81
2022-11-13T12:11:34.524Z,100285.91
2022-11-13T12:13:05.066Z,100290.22
2022-11-13T12:14:23.158Z,100285.66
2022-11-13T12:15:28.726Z,100288.38
2022-11-13T12:16:48.683Z,100284.94
2022-11-13T12:18:09.895Z,100285.22
2022-11-13T12:19:22.939Z,100284.41
2022-11-13T12:20:26.240Z,100280.19
2022-11-13T12:21:48.365Z,100275.59
2022-11-13T12:23:05.269Z,100278.44
2022-11-13T12:24:47.013Z,100263.38
2022-11-13T12:26:01.664Z,100274.38
2022-11-13T12:27:28.667Z,100263.63
2022-11-13T12:28:45.327Z,100253.50
2022-11-13T12:30:26.854Z,100254.06